createdAt,value
2023-08-13T00:00:17.650Z,931.10
2023-08-13T00:01:16.080Z,931.02
2023-08-13T00:02:16.528Z,930.94
2023-08-13T00:03:16.322Z,930.89
2023-08-13T00:04:16.186Z,930.85
2023-08-13T00:05:16.064Z,930.80
2023-08-13T00:06:16.094Z,930.71
2023-08-13T00:07:15.915Z,930.62
2023-08-13T00:08:16.012Z,930.54
2023-08-13T00:09:15.987Z,930.53
2023-08-13T00:10:15.935Z,930.52
2023-08-13T00:11:16.041Z,930.51
2023-08-13T00:12:16.486Z,930.56
2023-08-13T00:13:15.855Z,930.60
2023-08-13T00:14:16.161Z,930.66
2023-08-13T00:15:15.948Z,930.73
2023-08-13T00:16:15.952Z,930.72
2023-08-13T00:17:16.265Z,930.76
2023-08-13T00:18:15.840Z,930.79
2023-08-13T00:19:15.778Z,930.84
2023-08-13T00:20:15.889Z,930.93
2023-08-13T00:21:16.176Z,930.93
2023-08-13T00:22:15.871Z,930.97
2023-08-13T00:23:15.776Z,931.03
2023-08-13T00:24:15.813Z,931.12
2023-08-13T00:25:15.827Z,931.15
2023-08-13T00:26:15.748Z,931.24
2023-08-13T00:27:16.217Z,931.27
2023-08-13T00:28:16.663Z,931.32
2023-08-13T00:29:15.647Z,931.34
2023-08-13T00:30:15.748Z,931.33
2023-08-13T00:31:15.740Z,931.34
2023-08-13T00:32:15.992Z,931.31
2023-08-13T00:33:15.854Z,931.26
2023-08-13T00:34:15.993Z,931.21
2023-08-13T00:35:15.765Z,931.17
2023-08-13T00:36:15.676Z,931.12
2023-08-13T00:37:15.784Z,931.05
2023-08-13T00:38:15.706Z,931.03
2023-08-13T00:39:15.793Z,931.00
2023-08-13T00:40:15.714Z,931.00
2023-08-13T00:41:15.700Z,930.99
2023-08-13T00:42:15.983Z,931.00
2023-08-13T00:43:15.823Z,931.03
2023-08-13T00:44:16.117Z,931.04
2023-08-13T00:45:15.728Z,931.08
2023-08-13T00:46:16.119Z,931.11
2023-08-13T00:47:15.640Z,931.13
2023-08-13T00:48:15.546Z,931.14
2023-08-13T00:49:15.646Z,931.12
2023-08-13T00:50:16.481Z,931.18
2023-08-13T00:51:15.799Z,931.16
2023-08-13T00:52:16.450Z,931.17
2023-08-13T00:53:15.571Z,931.17
2023-08-13T00:54:15.482Z,931.17
2023-08-13T00:55:16.292Z,931.17
2023-08-13T00:56:15.499Z,931.16
2023-08-13T00:57:16.203Z,931.18
2023-08-13T00:58:15.402Z,931.17
2023-08-13T00:59:15.515Z,931.16
2023-08-13T01:00:15.401Z,931.14
2023-08-13T01:01:15.444Z,931.15
2023-08-13T01:02:15.540Z,931.18
2023-08-13T01:03:15.374Z,931.19
2023-08-13T01:04:15.402Z,931.27
2023-08-13T01:05:15.349Z,931.27
2023-08-13T01:06:15.335Z,931.27
2023-08-13T01:07:16.089Z,931.32
2023-08-13T01:08:20.090Z,931.38
2023-08-13T01:09:15.684Z,931.44
2023-08-13T01:10:15.262Z,931.49
2023-08-13T01:11:15.902Z,931.54
2023-08-13T01:12:15.641Z,931.57
2023-08-13T01:13:15.201Z,931.60
2023-08-13T01:14:15.207Z,931.61
2023-08-13T01:15:15.200Z,931.61
2023-08-13T01:16:15.236Z,931.59
2023-08-13T01:17:15.212Z,931.58
2023-08-13T01:18:15.334Z,931.58
2023-08-13T01:19:15.134Z,931.58
2023-08-13T01:20:15.230Z,931.51
2023-08-13T01:21:16.282Z,931.47
2023-08-13T01:22:19.951Z,931.42
2023-08-13T01:23:19.553Z,931.38
2023-08-13T01:24:16.071Z,931.34
2023-08-13T01:25:15.674Z,931.32
2023-08-13T01:26:15.162Z,931.28
2023-08-13T01:27:15.066Z,931.29
2023-08-13T01:28:15.399Z,931.30
2023-08-13T01:29:15.077Z,931.32
2023-08-13T01:30:15.097Z,931.32
2023-08-13T01:31:15.002Z,931.29
2023-08-13T01:32:15.245Z,931.27
2023-08-13T01:33:15.006Z,931.26
2023-08-13T01:34:15.049Z,931.24
2023-08-13T01:35:15.041Z,931.25
2023-08-13T01:36:15.027Z,931.26
2023-08-13T01:37:15.038Z,931.26
2023-08-13T01:38:15.034Z,931.24
2023-08-13T01:39:14.943Z,931.23
2023-08-13T01:40:14.954Z,931.22
2023-08-13T01:41:14.954Z,931.22
2023-08-13T01:42:15.193Z,931.27
2023-08-13T01:43:14.882Z,931.22
2023-08-13T01:44:14.933Z,931.20
2023-08-13T01:45:14.889Z,931.18
2023-08-13T01:46:15.746Z,931.18
2023-08-13T01:47:14.834Z,931.15
2023-08-13T01:48:18.800Z,931.15
2023-08-13T01:49:14.829Z,931.18
2023-08-13T01:50:14.847Z,931.20
2023-08-13T01:51:14.758Z,931.22
2023-08-13T01:52:15.428Z,931.20
2023-08-13T01:53:14.886Z,931.24
2023-08-13T01:54:14.775Z,931.28
2023-08-13T01:55:14.781Z,931.29
2023-08-13T01:56:14.689Z,931.33
2023-08-13T01:57:14.695Z,931.36
2023-08-13T01:58:14.705Z,931.38
2023-08-13T01:59:14.713Z,931.43
2023-08-13T02:00:14.665Z,931.46
2023-08-13T02:01:14.746Z,931.51
2023-08-13T02:02:15.050Z,931.55
2023-08-13T02:03:14.635Z,931.58
2023-08-13T02:04:14.705Z,931.59
2023-08-13T02:05:14.613Z,931.59
2023-08-13T02:06:14.541Z,931.62
2023-08-13T02:07:14.617Z,931.60
2023-08-13T02:08:14.519Z,931.57
2023-08-13T02:09:14.538Z,931.57
2023-08-13T02:10:14.579Z,931.57
2023-08-13T02:11:14.477Z,931.55
2023-08-13T02:12:14.637Z,931.56
2023-08-13T02:13:14.490Z,931.58
2023-08-13T02:14:14.501Z,931.60
2023-08-13T02:15:14.664Z,931.62
2023-08-13T02:16:14.617Z,931.64
2023-08-13T02:17:14.473Z,931.66
2023-08-13T02:18:14.412Z,931.68
2023-08-13T02:19:14.420Z,931.69
2023-08-13T02:20:14.394Z,931.71
2023-08-13T02:21:14.636Z,931.76
2023-08-13T02:22:14.446Z,931.80
2023-08-13T02:23:14.344Z,931.86
2023-08-13T02:24:14.425Z,931.91
2023-08-13T02:25:14.496Z,931.98
2023-08-13T02:26:14.427Z,932.03
2023-08-13T02:27:14.371Z,932.09
2023-08-13T02:28:14.501Z,932.14
2023-08-13T02:29:15.301Z,932.19
2023-08-13T02:30:14.309Z,932.23
2023-08-13T02:31:14.346Z,932.27
2023-08-13T02:32:14.584Z,932.29
2023-08-13T02:33:14.406Z,932.30
2023-08-13T02:34:14.208Z,932.30
2023-08-13T02:35:14.542Z,932.29
2023-08-13T02:36:14.220Z,932.28
2023-08-13T02:37:14.229Z,932.28
2023-08-13T02:38:14.252Z,932.27
2023-08-13T02:39:14.258Z,932.25
2023-08-13T02:40:14.282Z,932.23
2023-08-13T02:41:14.179Z,932.21
2023-08-13T02:42:14.463Z,932.21
2023-08-13T02:43:14.179Z,932.22
2023-08-13T02:44:14.188Z,932.24
2023-08-13T02:45:14.176Z,932.25
2023-08-13T02:46:14.209Z,932.23
2023-08-13T02:47:14.104Z,932.20
2023-08-13T02:48:14.152Z,932.16
2023-08-13T02:49:14.120Z,932.11
2023-08-13T02:50:14.143Z,932.05
2023-08-13T02:51:14.111Z,932.01
2023-08-13T02:52:14.394Z,931.96
2023-08-13T02:53:14.042Z,931.93
2023-08-13T02:54:14.106Z,931.90
2023-08-13T02:55:14.053Z,931.87
2023-08-13T02:56:14.071Z,931.84
2023-08-13T02:57:14.129Z,931.83
2023-08-13T02:58:14.053Z,931.86
2023-08-13T02:59:13.977Z,931.87
2023-08-13T03:00:13.976Z,931.86
2023-08-13T03:01:14.706Z,931.86
2023-08-13T03:02:14.238Z,931.83
2023-08-13T03:03:14.123Z,931.78
2023-08-13T03:04:14.138Z,931.75
2023-08-13T03:05:13.921Z,931.72
2023-08-13T03:06:13.935Z,931.71
2023-08-13T03:07:13.908Z,931.69
2023-08-13T03:08:13.948Z,931.68
2023-08-13T03:09:13.949Z,931.68
2023-08-13T03:10:13.855Z,931.68
2023-08-13T03:11:13.879Z,931.65
2023-08-13T03:12:14.166Z,931.61
2023-08-13T03:13:13.874Z,931.60
2023-08-13T03:14:13.962Z,931.61
2023-08-13T03:15:14.090Z,931.61
2023-08-13T03:16:13.856Z,931.61
2023-08-13T03:17:13.803Z,931.62
2023-08-13T03:18:13.884Z,931.62
2023-08-13T03:19:13.879Z,931.60
2023-08-13T03:20:13.828Z,931.58
2023-08-13T03:21:13.833Z,931.56
2023-08-13T03:22:13.877Z,931.53
2023-08-13T03:23:13.817Z,931.50
2023-08-13T03:24:13.750Z,931.48
2023-08-13T03:25:13.743Z,931.44
2023-08-13T03:26:13.825Z,931.43
2023-08-13T03:27:13.654Z,931.40
2023-08-13T03:28:13.662Z,931.37
2023-08-13T03:29:13.671Z,931.32
2023-08-13T03:30:13.757Z,931.31
2023-08-13T03:31:13.768Z,931.31
2023-08-13T03:32:13.940Z,931.32
2023-08-13T03:33:13.625Z,931.35
2023-08-13T03:34:13.592Z,931.38
2023-08-13T03:35:13.673Z,931.40
2023-08-13T03:36:13.620Z,931.43
2023-08-13T03:37:13.700Z,931.46
2023-08-13T03:38:13.523Z,931.50
2023-08-13T03:39:13.605Z,931.53
2023-08-13T03:40:13.632Z,931.53
2023-08-13T03:41:13.544Z,931.50
2023-08-13T03:42:13.787Z,931.47
2023-08-13T03:43:13.558Z,931.43
2023-08-13T03:44:13.553Z,931.40
2023-08-13T03:45:13.538Z,931.37
2023-08-13T03:46:13.513Z,931.34
2023-08-13T03:47:13.478Z,931.32
2023-08-13T03:48:13.569Z,931.32
2023-08-13T03:49:13.577Z,931.32
2023-08-13T03:50:13.491Z,931.31
2023-08-13T03:51:13.486Z,931.33
2023-08-13T03:52:13.731Z,931.34
2023-08-13T03:53:13.427Z,931.36
2023-08-13T03:54:13.418Z,931.37
2023-08-13T03:55:13.533Z,931.37
2023-08-13T03:56:13.524Z,931.35
2023-08-13T03:57:13.427Z,931.34
2023-08-13T03:58:13.362Z,931.30
2023-08-13T03:59:13.371Z,931.29
2023-08-13T04:00:13.345Z,931.30
2023-08-13T04:01:13.420Z,931.29
2023-08-13T04:02:13.692Z,931.31
2023-08-13T04:03:24.761Z,931.32
2023-08-13T04:04:13.445Z,931.34
2023-08-13T04:05:13.343Z,931.33
2023-08-13T04:06:13.323Z,931.34
2023-08-13T04:07:13.402Z,931.33
2023-08-13T04:08:13.398Z,931.31
2023-08-13T04:09:13.321Z,931.32
2023-08-13T04:10:13.277Z,931.29
2023-08-13T04:11:13.274Z,931.26
2023-08-13T04:12:13.558Z,931.25
2023-08-13T04:13:13.225Z,931.23
2023-08-13T04:14:13.255Z,931.21
2023-08-13T04:15:13.323Z,931.20
2023-08-13T04:16:13.297Z,931.18
2023-08-13T04:17:13.214Z,931.15
2023-08-13T04:18:13.277Z,931.14
2023-08-13T04:19:13.170Z,931.14
2023-08-13T04:20:13.081Z,931.15
2023-08-13T04:21:13.097Z,931.14
2023-08-13T04:22:13.333Z,931.14
2023-08-13T04:23:13.112Z,931.14
2023-08-13T04:24:13.105Z,931.16
2023-08-13T04:25:13.108Z,931.18
2023-08-13T04:26:13.118Z,931.19
2023-08-13T04:27:13.118Z,931.20
2023-08-13T04:28:13.233Z,931.21
2023-08-13T04:29:13.032Z,931.20
2023-08-13T04:30:13.033Z,931.17
2023-08-13T04:31:12.963Z,931.14
2023-08-13T04:32:13.209Z,931.09
2023-08-13T04:33:12.952Z,931.05
2023-08-13T04:34:12.965Z,931.02
2023-08-13T04:35:12.966Z,931.00
2023-08-13T04:36:12.994Z,930.99
2023-08-13T04:37:12.987Z,931.01
2023-08-13T04:38:12.886Z,930.99
2023-08-13T04:39:12.893Z,931.00
2023-08-13T04:40:12.917Z,930.99
2023-08-13T04:41:12.918Z,930.98
2023-08-13T04:42:13.203Z,930.97
2023-08-13T04:43:12.818Z,930.98
2023-08-13T04:44:12.836Z,930.97
2023-08-13T04:45:12.829Z,930.97
2023-08-13T04:46:12.824Z,930.97
2023-08-13T04:47:12.800Z,930.94
2023-08-13T04:48:12.850Z,930.91
2023-08-13T04:49:12.765Z,930.88
2023-08-13T04:50:12.837Z,930.86
2023-08-13T04:51:12.835Z,930.85
2023-08-13T04:52:13.134Z,930.84
2023-08-13T04:53:12.798Z,930.82
2023-08-13T04:54:12.690Z,930.82
2023-08-13T04:55:13.179Z,930.80
2023-08-13T04:56:12.699Z,930.77
2023-08-13T04:57:12.674Z,930.73
2023-08-13T04:58:12.690Z,930.68
2023-08-13T04:59:12.668Z,930.63
2023-08-13T05:00:12.610Z,930.60
2023-08-13T05:01:12.748Z,930.56
2023-08-13T05:02:12.879Z,930.54
2023-08-13T05:03:12.609Z,930.54
2023-08-13T05:04:12.658Z,930.58
2023-08-13T05:05:12.652Z,930.60
2023-08-13T05:06:12.640Z,930.63
2023-08-13T05:07:12.553Z,930.66
2023-08-13T05:08:12.543Z,930.69
2023-08-13T05:09:12.527Z,930.69
2023-08-13T05:10:12.554Z,930.68
2023-08-13T05:11:12.540Z,930.67
2023-08-13T05:12:12.907Z,930.64
2023-08-13T05:13:12.596Z,930.59
2023-08-13T05:14:12.563Z,930.56
2023-08-13T05:15:12.685Z,930.56
2023-08-13T05:16:12.562Z,930.56
2023-08-13T05:17:12.507Z,930.56
2023-08-13T05:18:12.579Z,930.58
2023-08-13T05:19:12.503Z,930.62
2023-08-13T05:20:12.425Z,930.64
2023-08-13T05:21:12.436Z,930.67
2023-08-13T05:22:12.817Z,930.71
2023-08-13T05:23:12.381Z,930.71
2023-08-13T05:24:12.450Z,930.73
2023-08-13T05:25:12.455Z,930.73
2023-08-13T05:26:12.361Z,930.74
2023-08-13T05:27:12.375Z,930.75
2023-08-13T05:28:12.346Z,930.76
2023-08-13T05:29:12.350Z,930.75
2023-08-13T05:30:12.401Z,930.74
2023-08-13T05:31:12.371Z,930.74
2023-08-13T05:32:12.639Z,930.74
2023-08-13T05:33:12.325Z,930.74
2023-08-13T05:34:12.305Z,930.74
2023-08-13T05:35:12.322Z,930.72
2023-08-13T05:36:12.307Z,930.69
2023-08-13T05:37:12.226Z,930.66
2023-08-13T05:38:12.264Z,930.64
2023-08-13T05:39:12.264Z,930.63
2023-08-13T05:40:12.248Z,930.62
2023-08-13T05:41:12.266Z,930.63
2023-08-13T05:42:12.721Z,930.65
2023-08-13T05:43:12.180Z,930.66
2023-08-13T05:44:12.176Z,930.68
2023-08-13T05:45:12.193Z,930.70
2023-08-13T05:46:12.185Z,930.71
2023-08-13T05:47:14.902Z,930.70
2023-08-13T05:48:12.313Z,930.69
2023-08-13T05:49:12.106Z,930.70
2023-08-13T05:50:12.184Z,930.71
2023-08-13T05:51:12.129Z,930.71
2023-08-13T05:52:12.500Z,930.72
2023-08-13T05:53:12.118Z,930.71
2023-08-13T05:54:12.084Z,930.72
2023-08-13T05:55:12.061Z,930.72
2023-08-13T05:56:12.051Z,930.72
2023-08-13T05:57:12.279Z,930.72
2023-08-13T05:58:12.054Z,930.73
2023-08-13T05:59:12.063Z,930.75
2023-08-13T06:00:11.988Z,930.77
2023-08-13T06:01:12.017Z,930.79
2023-08-13T06:02:12.861Z,930.82
2023-08-13T06:03:12.090Z,930.83
2023-08-13T06:04:12.002Z,930.84
2023-08-13T06:05:12.001Z,930.85
2023-08-13T06:06:11.937Z,930.85
2023-08-13T06:07:11.922Z,930.88
2023-08-13T06:08:11.943Z,930.90
2023-08-13T06:09:12.010Z,930.90
2023-08-13T06:10:11.950Z,930.90
2023-08-13T06:11:11.928Z,930.91
2023-08-13T06:12:12.050Z,930.94
2023-08-13T06:13:11.869Z,930.95
2023-08-13T06:14:11.878Z,930.96
2023-08-13T06:15:11.887Z,930.97
2023-08-13T06:16:11.993Z,930.96
2023-08-13T06:17:14.925Z,930.97
2023-08-13T06:18:11.791Z,930.95
2023-08-13T06:19:11.873Z,930.95
2023-08-13T06:20:11.899Z,930.94
2023-08-13T06:21:11.816Z,930.96
2023-08-13T06:22:11.834Z,930.98
2023-08-13T06:23:11.795Z,930.96
2023-08-13T06:24:11.755Z,930.96
2023-08-13T06:25:11.781Z,930.97
2023-08-13T06:26:11.758Z,930.94
2023-08-13T06:27:11.743Z,930.91
2023-08-13T06:28:11.793Z,930.93
2023-08-13T06:29:11.769Z,930.92
2023-08-13T06:30:11.717Z,930.93
2023-08-13T06:31:19.303Z,930.93
2023-08-13T06:32:11.782Z,930.92
2023-08-13T06:33:11.681Z,930.91
2023-08-13T06:34:11.697Z,930.91
2023-08-13T06:35:11.612Z,930.90
2023-08-13T06:36:11.608Z,930.89
2023-08-13T06:37:11.605Z,930.91
2023-08-13T06:38:11.695Z,930.92
2023-08-13T06:39:11.691Z,930.92
2023-08-13T06:40:11.643Z,930.94
2023-08-13T06:41:11.621Z,930.95
2023-08-13T06:42:11.681Z,930.96
2023-08-13T06:43:11.562Z,930.96
2023-08-13T06:44:11.672Z,930.93
2023-08-13T06:45:11.570Z,930.91
2023-08-13T06:46:11.589Z,930.91
2023-08-13T06:47:11.502Z,930.89
2023-08-13T06:48:11.551Z,930.91
2023-08-13T06:49:11.500Z,930.90
2023-08-13T06:50:11.728Z,930.89
2023-08-13T06:51:11.492Z,930.88
2023-08-13T06:52:11.540Z,930.88
2023-08-13T06:53:11.546Z,930.86
2023-08-13T06:54:11.417Z,930.86
2023-08-13T06:55:11.396Z,930.86
2023-08-13T06:56:11.509Z,930.86
2023-08-13T06:57:11.445Z,930.88
2023-08-13T06:58:11.446Z,930.88
2023-08-13T06:59:11.431Z,930.89
2023-08-13T07:00:11.459Z,930.88
2023-08-13T07:01:11.353Z,930.87
2023-08-13T07:02:11.359Z,930.86
2023-08-13T07:03:11.493Z,930.85
2023-08-13T07:04:11.471Z,930.84
2023-08-13T07:05:11.401Z,930.87
2023-08-13T07:06:11.366Z,930.86
2023-08-13T07:07:11.291Z,930.85
2023-08-13T07:08:11.329Z,930.85
2023-08-13T07:09:11.391Z,930.85
2023-08-13T07:10:11.313Z,930.85
2023-08-13T07:11:11.247Z,930.87
2023-08-13T07:12:11.227Z,930.88
2023-08-13T07:13:11.261Z,930.90
2023-08-13T07:14:11.234Z,930.91
2023-08-13T07:15:12.572Z,930.95
2023-08-13T07:16:11.385Z,930.94
2023-08-13T07:17:11.301Z,930.96
2023-08-13T07:18:11.189Z,930.97
2023-08-13T07:19:11.169Z,930.95
2023-08-13T07:20:11.265Z,930.97
2023-08-13T07:21:11.180Z,930.99
2023-08-13T07:22:11.174Z,931.01
2023-08-13T07:23:11.191Z,931.02
2023-08-13T07:24:11.135Z,931.04
2023-08-13T07:25:11.124Z,931.02
2023-08-13T07:26:11.234Z,931.03
2023-08-13T07:27:11.108Z,931.00
2023-08-13T07:28:11.163Z,931.02
2023-08-13T07:29:11.171Z,931.03
2023-08-13T07:30:11.128Z,931.04
2023-08-13T07:31:11.037Z,931.04
2023-08-13T07:32:11.253Z,931.08
2023-08-13T07:33:11.112Z,931.11
2023-08-13T07:34:11.002Z,931.12
2023-08-13T07:35:10.985Z,931.13
2023-08-13T07:36:10.990Z,931.12
2023-08-13T07:37:10.998Z,931.12
2023-08-13T07:38:11.008Z,931.10
2023-08-13T07:39:10.909Z,931.09
2023-08-13T07:40:10.916Z,931.09
2023-08-13T07:41:10.995Z,931.12
2023-08-13T07:42:10.926Z,931.12
2023-08-13T07:43:10.909Z,931.15
2023-08-13T07:44:11.020Z,931.15
2023-08-13T07:45:10.869Z,931.20
2023-08-13T07:46:10.985Z,931.20
2023-08-13T07:47:10.946Z,931.23
2023-08-13T07:48:10.880Z,931.25
2023-08-13T07:49:10.972Z,931.28
2023-08-13T07:50:10.824Z,931.29
2023-08-13T07:51:10.778Z,931.33
2023-08-13T07:52:10.806Z,931.35
2023-08-13T07:53:10.833Z,931.38
2023-08-13T07:54:10.806Z,931.37
2023-08-13T07:55:10.857Z,931.39
2023-08-13T07:56:10.863Z,931.38
2023-08-13T07:57:10.777Z,931.41
2023-08-13T07:58:10.830Z,931.40
2023-08-13T07:59:10.742Z,931.42
2023-08-13T08:00:10.798Z,931.43
2023-08-13T08:01:10.838Z,931.43
2023-08-13T08:02:10.762Z,931.47
2023-08-13T08:03:10.769Z,931.47
2023-08-13T08:04:10.725Z,931.49
2023-08-13T08:05:10.734Z,931.48
2023-08-13T08:06:10.678Z,931.49
2023-08-13T08:07:10.684Z,931.48
2023-08-13T08:08:10.696Z,931.50
2023-08-13T08:09:10.596Z,931.50
2023-08-13T08:10:10.705Z,931.52
2023-08-13T08:11:10.685Z,931.51
2023-08-13T08:12:10.616Z,931.53
2023-08-13T08:13:10.577Z,931.54
2023-08-13T08:14:10.642Z,931.52
2023-08-13T08:15:10.685Z,931.54
2023-08-13T08:16:11.279Z,931.53
2023-08-13T08:17:10.555Z,931.53
2023-08-13T08:18:10.639Z,931.53
2023-08-13T08:19:10.610Z,931.54
2023-08-13T08:20:10.665Z,931.54
2023-08-13T08:21:10.526Z,931.55
2023-08-13T08:22:10.646Z,931.54
2023-08-13T08:23:10.486Z,931.54
2023-08-13T08:24:10.553Z,931.54
2023-08-13T08:25:10.472Z,931.54
2023-08-13T08:26:10.459Z,931.54
2023-08-13T08:27:10.482Z,931.55
2023-08-13T08:28:10.464Z,931.56
2023-08-13T08:29:10.473Z,931.52
2023-08-13T08:30:10.384Z,931.53
2023-08-13T08:31:10.456Z,931.52
2023-08-13T08:32:10.395Z,931.50
2023-08-13T08:33:10.404Z,931.50
2023-08-13T08:34:10.564Z,931.52
2023-08-13T08:35:10.413Z,931.52
2023-08-13T08:36:10.360Z,931.52
2023-08-13T08:37:10.485Z,931.53
2023-08-13T08:38:10.330Z,931.56
2023-08-13T08:39:10.331Z,931.57
2023-08-13T08:40:10.298Z,931.58
2023-08-13T08:41:10.300Z,931.59
2023-08-13T08:42:10.276Z,931.60
2023-08-13T08:43:10.363Z,931.60
2023-08-13T08:44:10.344Z,931.60
2023-08-13T08:45:10.222Z,931.62
2023-08-13T08:46:10.810Z,931.64
2023-08-13T08:47:10.435Z,931.63
2023-08-13T08:48:10.241Z,931.63
2023-08-13T08:49:10.299Z,931.64
2023-08-13T08:50:10.202Z,931.62
2023-08-13T08:51:10.159Z,931.62
2023-08-13T08:52:10.248Z,931.63
2023-08-13T08:53:10.172Z,931.64
2023-08-13T08:54:10.179Z,931.65
2023-08-13T08:55:10.132Z,931.67
2023-08-13T08:56:10.136Z,931.70
2023-08-13T08:57:10.146Z,931.72
2023-08-13T08:58:10.183Z,931.74
2023-08-13T08:59:10.154Z,931.77
2023-08-13T09:00:10.124Z,931.77
2023-08-13T09:01:10.119Z,931.78
2023-08-13T09:02:10.168Z,931.78
2023-08-13T09:03:10.106Z,931.78
2023-08-13T09:04:10.173Z,931.80
2023-08-13T09:05:10.027Z,931.80
2023-08-13T09:06:20.693Z,931.82
2023-08-13T09:07:10.066Z,931.83
2023-08-13T09:08:10.040Z,931.84
2023-08-13T09:09:10.114Z,931.87
2023-08-13T09:10:10.069Z,931.88
2023-08-13T09:11:09.960Z,931.90
2023-08-13T09:12:09.960Z,931.92
2023-08-13T09:13:09.939Z,931.91
2023-08-13T09:14:09.978Z,931.92
2023-08-13T09:15:09.909Z,931.94
2023-08-13T09:16:09.898Z,931.96
2023-08-13T09:17:09.902Z,931.99
2023-08-13T09:18:10.041Z,932.01
2023-08-13T09:19:13.904Z,932.03
2023-08-13T09:20:09.888Z,932.05
2023-08-13T09:21:09.920Z,932.08
2023-08-13T09:22:09.930Z,932.10
2023-08-13T09:23:09.941Z,932.13
2023-08-13T09:24:09.945Z,932.13
2023-08-13T09:25:09.948Z,932.13
2023-08-13T09:26:10.070Z,932.14
2023-08-13T09:27:09.961Z,932.13
2023-08-13T09:28:09.985Z,932.12
2023-08-13T09:29:09.980Z,932.12
2023-08-13T09:30:09.939Z,932.12
2023-08-13T09:31:09.950Z,932.13
2023-08-13T09:32:09.778Z,932.14
2023-08-13T09:33:09.790Z,932.16
2023-08-13T09:34:09.798Z,932.20
2023-08-13T09:35:09.807Z,932.23
2023-08-13T09:36:09.818Z,932.24
2023-08-13T09:37:09.812Z,932.26
2023-08-13T09:38:09.819Z,932.27
2023-08-13T09:39:09.833Z,932.27
2023-08-13T09:40:09.785Z,932.29
2023-08-13T09:41:10.358Z,932.30
2023-08-13T09:42:09.759Z,932.31
2023-08-13T09:43:09.754Z,932.33
2023-08-13T09:44:09.672Z,932.35
2023-08-13T09:45:09.660Z,932.38
2023-08-13T09:46:10.988Z,932.40
2023-08-13T09:47:09.809Z,932.44
2023-08-13T09:48:10.329Z,932.48
2023-08-13T09:49:09.695Z,932.51
2023-08-13T09:50:09.605Z,932.53
2023-08-13T09:51:09.596Z,932.57
2023-08-13T09:52:09.633Z,932.58
2023-08-13T09:53:09.749Z,932.60
2023-08-13T09:54:09.629Z,932.62
2023-08-13T09:55:09.561Z,932.63
2023-08-13T09:56:09.481Z,932.63
2023-08-13T09:57:09.465Z,932.65
2023-08-13T09:58:09.465Z,932.65
2023-08-13T09:59:10.296Z,932.67
2023-08-13T10:00:09.545Z,932.71
2023-08-13T10:01:09.515Z,932.74
2023-08-13T10:02:09.410Z,932.77
2023-08-13T10:03:11.598Z,932.80
2023-08-13T10:04:09.473Z,932.82
2023-08-13T10:05:09.926Z,932.85
2023-08-13T10:06:09.450Z,932.88
2023-08-13T10:07:09.327Z,932.91
2023-08-13T10:08:09.427Z,932.93
2023-08-13T10:09:09.333Z,932.94
2023-08-13T10:10:09.355Z,932.95
2023-08-13T10:11:11.291Z,932.95
2023-08-13T10:12:09.357Z,932.99
2023-08-13T10:13:09.448Z,933.01
2023-08-13T10:14:09.270Z,933.03
2023-08-13T10:15:09.302Z,933.02
2023-08-13T10:16:09.385Z,933.02
2023-08-13T10:17:09.795Z,933.03
2023-08-13T10:18:09.305Z,933.01
2023-08-13T10:19:09.198Z,932.99
2023-08-13T10:20:09.211Z,933.00
2023-08-13T10:21:09.201Z,932.99
2023-08-13T10:22:09.297Z,933.01
2023-08-13T10:23:09.228Z,933.01
2023-08-13T10:24:09.229Z,933.02
2023-08-13T10:25:09.237Z,933.04
2023-08-13T10:26:09.235Z,933.04
2023-08-13T10:27:09.760Z,933.05
2023-08-13T10:28:09.163Z,933.07
2023-08-13T10:29:09.231Z,933.11
2023-08-13T10:30:09.240Z,933.15
2023-08-13T10:31:09.067Z,933.17
2023-08-13T10:32:09.085Z,933.18
2023-08-13T10:33:09.173Z,933.19
2023-08-13T10:34:09.083Z,933.27
2023-08-13T10:35:09.110Z,933.22
2023-08-13T10:36:09.129Z,933.25
2023-08-13T10:37:09.004Z,933.24
2023-08-13T10:38:12.011Z,933.25
2023-08-13T10:39:09.013Z,933.30
2023-08-13T10:40:09.030Z,933.27
2023-08-13T10:41:09.048Z,933.29
2023-08-13T10:42:09.140Z,933.32
2023-08-13T10:43:09.038Z,933.34
2023-08-13T10:44:08.952Z,933.35
2023-08-13T10:45:08.959Z,933.36
2023-08-13T10:46:09.143Z,933.36
2023-08-13T10:47:08.973Z,933.36
2023-08-13T10:48:08.972Z,933.38
2023-08-13T10:49:08.970Z,933.38
2023-08-13T10:50:08.887Z,933.39
2023-08-13T10:51:08.901Z,933.41
2023-08-13T10:52:08.901Z,933.44
2023-08-13T10:53:09.014Z,933.42
2023-08-13T10:54:08.901Z,933.43
2023-08-13T10:55:08.825Z,933.46
2023-08-13T10:56:08.900Z,933.49
2023-08-13T10:57:08.839Z,933.47
2023-08-13T10:58:08.858Z,933.49
2023-08-13T10:59:08.846Z,933.50
2023-08-13T11:00:08.853Z,933.53
2023-08-13T11:01:08.830Z,933.58
2023-08-13T11:02:08.770Z,933.57
2023-08-13T11:03:08.843Z,933.56
2023-08-13T11:04:08.780Z,933.60
2023-08-13T11:05:08.756Z,933.60
2023-08-13T11:06:08.800Z,933.63
2023-08-13T11:07:08.696Z,933.62
2023-08-13T11:08:08.801Z,933.65
2023-08-13T11:09:08.788Z,933.67
2023-08-13T11:10:08.716Z,933.71
2023-08-13T11:11:08.752Z,933.72
2023-08-13T11:12:08.729Z,933.76
2023-08-13T11:13:08.637Z,933.80
2023-08-13T11:14:08.662Z,933.79
2023-08-13T11:15:11.458Z,933.82
2023-08-13T11:16:08.787Z,933.81
2023-08-13T11:17:08.649Z,933.84
2023-08-13T11:18:08.665Z,933.85
2023-08-13T11:19:08.655Z,933.83
2023-08-13T11:20:08.648Z,933.85
2023-08-13T11:21:08.662Z,933.89
2023-08-13T11:22:08.675Z,933.87
2023-08-13T11:23:08.600Z,933.93
2023-08-13T11:24:08.503Z,933.96
2023-08-13T11:25:08.513Z,934.01
2023-08-13T11:26:08.586Z,933.99
2023-08-13T11:27:08.537Z,933.99
2023-08-13T11:28:08.599Z,933.99
2023-08-13T11:29:08.537Z,934.01
2023-08-13T11:30:08.530Z,933.99
2023-08-13T11:31:08.512Z,934.03
2023-08-13T11:32:08.452Z,934.04
2023-08-13T11:33:08.623Z,934.01
2023-08-13T11:34:08.536Z,934.06
2023-08-13T11:35:08.469Z,934.07
2023-08-13T11:36:08.551Z,934.10
2023-08-13T11:37:08.383Z,934.07
2023-08-13T11:38:08.471Z,934.10
2023-08-13T11:39:08.473Z,934.12
2023-08-13T11:40:10.425Z,934.14
2023-08-13T11:41:08.478Z,934.14
2023-08-13T11:42:08.318Z,934.19
2023-08-13T11:43:08.391Z,934.21
2023-08-13T11:44:08.374Z,934.21
2023-08-13T11:45:08.408Z,934.30
2023-08-13T11:46:08.879Z,934.24
2023-08-13T11:47:08.322Z,934.26
2023-08-13T11:48:08.381Z,934.29
2023-08-13T11:49:08.332Z,934.33
2023-08-13T11:50:08.336Z,934.34
2023-08-13T11:51:18.286Z,934.35
2023-08-13T11:52:08.332Z,934.38
2023-08-13T11:53:08.270Z,934.37
2023-08-13T11:54:08.256Z,934.39
2023-08-13T11:55:08.244Z,934.40
2023-08-13T11:56:08.279Z,934.40
2023-08-13T11:57:08.742Z,934.41
2023-08-13T11:58:08.314Z,934.44
2023-08-13T11:59:08.111Z,934.42
2023-08-13T12:00:08.181Z,934.43
2023-08-13T12:01:08.186Z,934.41
2023-08-13T12:02:08.117Z,934.43
2023-08-13T12:03:08.250Z,934.40
2023-08-13T12:04:08.357Z,934.43
2023-08-13T12:05:08.134Z,934.44
2023-08-13T12:06:08.063Z,934.41
2023-08-13T12:07:08.070Z,934.47
2023-08-13T12:08:08.130Z,934.50
2023-08-13T12:09:08.133Z,934.54
2023-08-13T12:10:08.084Z,934.52
2023-08-13T12:11:08.044Z,934.50
2023-08-13T12:12:08.039Z,934.50
2023-08-13T12:13:07.996Z,934.47
2023-08-13T12:14:08.058Z,934.44
2023-08-13T12:15:08.000Z,934.42
2023-08-13T12:16:08.125Z,934.41
2023-08-13T12:17:07.910Z,934.42
2023-08-13T12:18:07.995Z,934.43
2023-08-13T12:19:07.997Z,934.43
2023-08-13T12:20:07.934Z,934.42
2023-08-13T12:21:08.010Z,934.41
2023-08-13T12:22:08.839Z,934.44
2023-08-13T12:23:07.932Z,934.44
2023-08-13T12:24:07.934Z,934.44
2023-08-13T12:25:07.937Z,934.45
2023-08-13T12:26:07.877Z,934.44
2023-08-13T12:27:07.960Z,934.47
2023-08-13T12:28:07.892Z,934.45